createdAt,value
2022-10-09T00:00:42.314Z,2.08
2022-10-09T00:02:40.268Z,1.70
2022-10-09T00:04:38.432Z,1.83
2022-10-09T00:06:36.649Z,1.67
2022-10-09T00:08:35.087Z,0.68
2022-10-09T00:10:34.826Z,1.25
2022-10-09T00:12:32.782Z,1.13
2022-10-09T00:14:30.861Z,1.42
2022-10-09T00:16:29.392Z,1.88
2022-10-09T00:18:27.280Z,0.93
2022-10-09T00:20:25.392Z,0.90
2022-10-09T00:22:25.935Z,1.20
2022-10-09T00:24:23.889Z,1.45
2022-10-09T00:26:23.378Z,1.63
2022-10-09T00:28:21.622Z,1.90
2022-10-09T00:30:20.465Z,1.25
2022-10-09T00:32:18.669Z,1.05
2022-10-09T00:34:16.671Z,0.50
2022-10-09T00:36:15.725Z,1.45
2022-10-09T00:38:13.737Z,0.82
2022-10-09T00:40:11.754Z,1.15
2022-10-09T00:42:12.479Z,1.15
2022-10-09T00:44:25.268Z,2.10
2022-10-09T00:46:27.626Z,0.98
2022-10-09T00:48:25.631Z,1.25
2022-10-09T00:50:25.341Z,1.33
2022-10-09T00:52:24.730Z,1.08
2022-10-09T00:54:24.237Z,1.70
2022-10-09T00:56:22.250Z,0.98
2022-10-09T00:58:22.209Z,1.95
2022-10-09T01:00:20.246Z,1.00
2022-10-09T01:02:18.682Z,1.02
2022-10-09T01:04:16.948Z,1.88
2022-10-09T01:06:18.387Z,1.55
2022-10-09T01:08:20.244Z,1.20
2022-10-09T01:10:28.037Z,1.63
2022-10-09T01:12:30.472Z,1.73
2022-10-09T01:14:31.151Z,1.50
2022-10-09T01:16:30.415Z,2.05
2022-10-09T01:18:31.063Z,2.55
2022-10-09T01:20:33.710Z,1.60
2022-10-09T01:22:36.417Z,1.23
2022-10-09T01:24:36.582Z,1.33
2022-10-09T01:26:49.398Z,1.45
2022-10-09T01:28:50.616Z,1.10
2022-10-09T01:30:49.298Z,1.70
2022-10-09T01:32:49.937Z,1.50
2022-10-09T01:34:48.953Z,1.17
2022-10-09T01:36:47.526Z,1.50
2022-10-09T01:38:46.092Z,1.83
2022-10-09T01:40:44.303Z,1.67
2022-10-09T01:42:42.348Z,0.93
2022-10-09T01:44:41.634Z,1.83
2022-10-09T01:46:40.230Z,1.10
2022-10-09T01:48:38.243Z,1.17
2022-10-09T01:50:37.949Z,1.58
2022-10-09T01:52:41.440Z,1.13
2022-10-09T01:54:42.662Z,1.40
2022-10-09T01:56:40.818Z,1.30
2022-10-09T01:58:42.687Z,1.08
2022-10-09T02:00:45.451Z,1.15
2022-10-09T02:02:43.834Z,1.52
2022-10-09T02:04:43.008Z,1.95
2022-10-09T02:06:42.533Z,1.92
2022-10-09T02:08:40.989Z,1.80
2022-10-09T02:10:39.277Z,1.60
2022-10-09T02:12:39.648Z,1.92
2022-10-09T02:14:37.814Z,1.67
2022-10-09T02:16:39.074Z,1.88
2022-10-09T02:18:38.629Z,2.17
2022-10-09T02:20:37.899Z,1.83
2022-10-09T02:22:37.035Z,2.22
2022-10-09T02:24:35.300Z,1.33
2022-10-09T02:26:33.749Z,1.95
2022-10-09T02:28:31.850Z,1.42
2022-10-09T02:30:35.121Z,2.60
2022-10-09T02:32:34.514Z,1.55
2022-10-09T02:34:32.910Z,2.05
2022-10-09T02:36:31.235Z,2.05
2022-10-09T02:38:29.379Z,0.80
2022-10-09T02:40:27.285Z,2.50
2022-10-09T02:42:26.101Z,2.10
2022-10-09T02:44:24.191Z,2.28
2022-10-09T02:46:21.445Z,1.38
2022-10-09T02:48:20.906Z,1.42
2022-10-09T02:50:18.871Z,1.38
2022-10-09T02:52:16.730Z,1.33
2022-10-09T02:54:15.005Z,1.90
2022-10-09T02:56:12.807Z,1.50
2022-10-09T02:58:10.799Z,1.52
2022-10-09T03:00:09.272Z,1.55
2022-10-09T03:02:07.320Z,0.82
2022-10-09T03:04:06.739Z,2.42
2022-10-09T03:06:05.269Z,1.73
2022-10-09T03:08:03.270Z,1.15
2022-10-09T03:10:01.617Z,1.85
2022-10-09T03:11:59.380Z,2.13
2022-10-09T03:13:57.364Z,1.67
2022-10-09T03:15:55.323Z,2.08
2022-10-09T03:17:53.090Z,2.05
2022-10-09T03:19:52.404Z,1.52
2022-10-09T03:21:50.418Z,1.52
2022-10-09T03:23:48.415Z,1.50
2022-10-09T03:25:46.496Z,1.33
2022-10-09T03:27:44.417Z,1.50
2022-10-09T03:29:42.323Z,1.63
2022-10-09T03:31:51.971Z,2.30
2022-10-09T03:33:50.991Z,1.67
2022-10-09T03:35:50.869Z,1.42
2022-10-09T03:37:48.864Z,1.45
2022-10-09T03:39:46.812Z,1.35
2022-10-09T03:41:44.658Z,1.83
2022-10-09T03:43:42.457Z,1.33
2022-10-09T03:45:40.955Z,1.75
2022-10-09T03:47:38.887Z,1.52
2022-10-09T03:49:36.730Z,1.30
2022-10-09T03:51:36.240Z,1.17
2022-10-09T03:53:34.194Z,1.52
2022-10-09T03:55:32.137Z,1.13
2022-10-09T03:57:30.101Z,0.88
2022-10-09T03:59:28.622Z,1.13
2022-10-09T04:01:26.539Z,1.08
2022-10-09T04:03:24.635Z,0.77
2022-10-09T04:05:22.519Z,0.88
2022-10-09T04:07:21.889Z,1.13
2022-10-09T04:09:19.703Z,0.90
2022-10-09T04:11:17.683Z,0.90
2022-10-09T04:13:15.557Z,1.00
2022-10-09T04:15:13.554Z,1.40
2022-10-09T04:17:11.401Z,1.13
2022-10-09T04:19:09.291Z,1.30
2022-10-09T04:21:07.629Z,0.50
2022-10-09T04:23:09.947Z,0.47
2022-10-09T04:25:08.102Z,0.90
2022-10-09T04:27:06.046Z,1.38
2022-10-09T04:29:04.033Z,0.55
2022-10-09T04:31:01.922Z,1.33
2022-10-09T04:32:59.707Z,0.68
2022-10-09T04:34:57.703Z,1.23
2022-10-09T04:36:55.789Z,2.10
2022-10-09T04:38:55.342Z,1.15
2022-10-09T04:40:56.954Z,1.13
2022-10-09T04:42:54.983Z,0.98
2022-10-09T04:44:52.911Z,1.00
2022-10-09T04:46:51.319Z,0.95
2022-10-09T04:48:49.537Z,1.17
2022-10-09T04:50:47.434Z,1.20
2022-10-09T04:52:45.374Z,2.83
2022-10-09T04:54:44.688Z,1.60
2022-10-09T04:56:42.565Z,0.98
2022-10-09T04:58:40.952Z,0.95
2022-10-09T05:00:41.067Z,1.52
2022-10-09T05:02:39.118Z,0.50
2022-10-09T05:04:36.972Z,1.20
2022-10-09T05:06:34.944Z,1.27
2022-10-09T05:08:32.966Z,1.23
2022-10-09T05:10:33.090Z,1.23
2022-10-09T05:12:31.111Z,2.08
2022-10-09T05:14:28.949Z,1.10
2022-10-09T05:16:27.925Z,1.40
2022-10-09T05:18:25.958Z,1.17
2022-10-09T05:20:24.130Z,1.80
2022-10-09T05:22:22.054Z,2.20
2022-10-09T05:24:20.091Z,0.93
2022-10-09T05:26:20.612Z,1.02
2022-10-09T05:28:18.623Z,1.27
2022-10-09T05:30:16.717Z,1.13
2022-10-09T05:32:14.979Z,1.40
2022-10-09T05:34:12.986Z,1.00
2022-10-09T05:36:11.115Z,1.00
2022-10-09T05:38:09.088Z,0.93
2022-10-09T05:40:10.146Z,1.30
2022-10-09T05:42:09.530Z,2.03
2022-10-09T05:44:07.790Z,1.58
2022-10-09T05:46:07.421Z,1.13
2022-10-09T05:48:08.288Z,1.27
2022-10-09T05:50:07.614Z,1.63
2022-10-09T05:52:06.156Z,1.88
2022-10-09T05:54:04.928Z,1.15
2022-10-09T05:56:11.007Z,2.38
2022-10-09T05:58:10.976Z,0.90
2022-10-09T06:00:10.193Z,0.95
2022-10-09T06:02:10.490Z,0.80
2022-10-09T06:04:11.230Z,0.60
2022-10-09T06:06:10.097Z,0.52
2022-10-09T06:08:17.141Z,0.40
2022-10-09T06:10:15.823Z,1.05
2022-10-09T06:12:14.146Z,1.52
2022-10-09T06:14:14.181Z,0.93
2022-10-09T06:16:13.909Z,1.23
2022-10-09T06:18:12.170Z,0.57
2022-10-09T06:20:10.825Z,1.60
2022-10-09T06:22:09.114Z,2.50
2022-10-09T06:24:07.796Z,1.02
2022-10-09T06:26:06.848Z,2.83
2022-10-09T06:28:04.996Z,1.83
2022-10-09T06:30:05.300Z,1.02
2022-10-09T06:32:03.872Z,0.63
2022-10-09T06:34:03.395Z,1.25
2022-10-09T06:36:09.834Z,0.70
2022-10-09T06:38:08.713Z,0.77
2022-10-09T06:40:09.230Z,0.60
2022-10-09T06:42:07.729Z,0.85
2022-10-09T06:44:17.379Z,0.55
2022-10-09T06:46:17.221Z,0.63
2022-10-09T06:48:15.795Z,1.20
2022-10-09T06:50:14.053Z,0.57
2022-10-09T06:52:12.398Z,0.30
2022-10-09T06:54:12.679Z,0.63
2022-10-09T06:56:11.842Z,0.88
2022-10-09T06:58:10.218Z,1.58
2022-10-09T07:00:09.026Z,0.60
2022-10-09T07:02:10.248Z,2.10
2022-10-09T07:04:09.211Z,1.80
2022-10-09T07:11:21.054Z,2.38
2022-10-09T07:13:19.378Z,1.38
2022-10-09T07:15:17.751Z,0.60
2022-10-09T07:17:17.370Z,1.20
2022-10-09T07:19:17.885Z,2.90
2022-10-09T07:21:16.775Z,3.43
2022-10-09T07:23:15.024Z,2.00
2022-10-09T07:25:13.117Z,1.73
2022-10-09T07:27:11.007Z,1.00
2022-10-09T07:29:09.524Z,1.17
2022-10-09T07:31:07.678Z,1.00
2022-10-09T07:33:07.147Z,0.87
2022-10-09T07:35:05.338Z,1.10
2022-10-09T07:37:03.292Z,2.93
2022-10-09T07:39:01.199Z,1.00
2022-10-09T07:41:00.965Z,0.80
2022-10-09T07:42:58.808Z,0.90
2022-10-09T07:44:56.797Z,1.10
2022-10-09T07:46:54.790Z,3.23
2022-10-09T07:48:54.239Z,1.70
2022-10-09T07:50:52.186Z,1.10
2022-10-09T07:52:50.303Z,0.70
2022-10-09T07:54:48.262Z,0.90
2022-10-09T07:56:46.368Z,0.33
2022-10-09T07:58:47.508Z,1.10
2022-10-09T08:00:52.404Z,0.73
2022-10-09T08:02:50.691Z,0.40
2022-10-09T08:04:50.170Z,0.63
2022-10-09T08:06:48.176Z,0.50
2022-10-09T08:08:46.242Z,1.17
2022-10-09T08:10:44.290Z,0.70
2022-10-09T08:12:42.241Z,16.63
2022-10-09T08:14:40.038Z,10.20
2022-10-09T08:16:38.056Z,5.83
2022-10-09T08:20:59.964Z,7.93
2022-10-09T08:22:57.920Z,10.20
2022-10-09T08:24:55.712Z,4.20
2022-10-09T08:26:53.724Z,2.77
2022-10-09T08:28:52.343Z,6.97
2022-10-09T08:30:50.522Z,5.23
2022-10-09T08:32:48.886Z,1.10
2022-10-09T08:34:47.620Z,0.50
2022-10-09T08:36:46.958Z,0.93
2022-10-09T08:38:47.591Z,0.97
2022-10-09T08:40:50.009Z,2.83
2022-10-09T08:42:53.604Z,0.70
2022-10-09T08:44:51.687Z,0.52
2022-10-09T08:46:53.295Z,0.33
2022-10-09T08:48:52.591Z,0.77
2022-10-09T08:50:52.154Z,0.30
2022-10-09T08:52:57.402Z,0.10
2022-10-09T08:54:57.409Z,1.93
2022-10-09T08:56:59.706Z,0.30
2022-10-09T08:58:58.204Z,0.00
2022-10-09T09:00:59.913Z,0.83
2022-10-09T09:03:09.361Z,0.20
2022-10-09T09:05:14.002Z,0.30
2022-10-09T09:07:15.469Z,0.40
2022-10-09T09:09:21.079Z,0.23
2022-10-09T09:11:22.350Z,0.40
2022-10-09T09:13:28.167Z,0.10
2022-10-09T09:15:40.050Z,0.20
2022-10-09T09:17:41.655Z,0.20
2022-10-09T09:19:52.467Z,0.15
2022-10-09T09:21:51.563Z,0.10
2022-10-09T09:23:49.919Z,0.00
2022-10-09T09:25:49.456Z,0.00
2022-10-09T09:27:47.775Z,0.00
2022-10-09T09:29:48.184Z,0.10
2022-10-09T09:31:47.902Z,0.10
2022-10-09T09:33:49.264Z,0.00
2022-10-09T09:35:50.547Z,0.10
2022-10-09T09:37:48.500Z,0.15
2022-10-09T09:42:12.087Z,0.10
2022-10-09T09:44:11.104Z,0.00
2022-10-09T09:46:11.486Z,1.90
2022-10-09T09:48:13.316Z,0.10
2022-10-09T09:50:28.459Z,0.35
2022-10-09T09:52:31.271Z,0.20
2022-10-09T09:54:30.441Z,0.00
2022-10-09T09:56:59.870Z,0.03
2022-10-09T09:58:57.377Z,0.10
2022-10-09T10:00:56.392Z,0.85
2022-10-09T10:03:02.861Z,0.20
2022-10-09T10:05:01.822Z,0.10
2022-10-09T10:07:00.184Z,0.40
2022-10-09T10:09:02.484Z,0.00
2022-10-09T10:11:01.204Z,0.10
2022-10-09T10:13:00.011Z,0.00
2022-10-09T10:14:59.600Z,0.20
2022-10-09T10:16:58.448Z,0.45
2022-10-09T10:18:57.369Z,0.00
2022-10-09T10:20:56.614Z,0.00
2022-10-09T10:22:55.416Z,0.00
2022-10-09T10:24:55.002Z,0.00
2022-10-09T10:26:55.942Z,0.10
2022-10-09T10:28:56.008Z,0.00
2022-10-09T10:30:56.671Z,0.00
2022-10-09T10:32:57.025Z,0.13
2022-10-09T10:34:57.445Z,0.00
2022-10-09T10:37:02.560Z,0.00
2022-10-09T10:39:06.053Z,0.00
2022-10-09T10:41:12.551Z,0.10
2022-10-09T10:43:24.051Z,0.52
2022-10-09T10:45:25.706Z,0.00
2022-10-09T10:47:27.683Z,0.10
2022-10-09T10:49:25.981Z,0.05
2022-10-09T10:51:44.154Z,0.00
2022-10-09T10:53:46.181Z,0.10
2022-10-09T10:55:48.755Z,0.00
2022-10-09T10:57:52.348Z,0.10
2022-10-09T10:59:54.864Z,0.10
2022-10-09T11:01:56.822Z,0.10
2022-10-09T11:04:05.499Z,0.10
2022-10-09T11:06:06.200Z,0.03
2022-10-09T11:08:08.668Z,0.07
2022-10-09T11:10:10.133Z,0.10
2022-10-09T11:12:19.666Z,0.10
2022-10-09T11:14:34.157Z,0.33
2022-10-09T11:16:38.904Z,0.33
2022-10-09T11:18:47.278Z,0.20
2022-10-09T11:20:53.272Z,0.10
2022-10-09T11:23:00.599Z,0.10
2022-10-09T11:25:05.133Z,0.10
2022-10-09T11:27:10.312Z,0.30
2022-10-09T11:29:10.620Z,0.20
2022-10-09T11:31:12.477Z,0.00
2022-10-09T11:33:13.788Z,0.70
2022-10-09T11:35:16.353Z,0.60
2022-10-09T11:37:17.082Z,0.60
2022-10-09T11:39:18.040Z,0.30
2022-10-09T11:41:23.818Z,0.00
2022-10-09T11:43:31.223Z,0.73
2022-10-09T11:45:31.565Z,0.20
2022-10-09T11:47:32.910Z,0.07
2022-10-09T11:49:34.506Z,0.30
2022-10-09T11:51:36.376Z,0.03
2022-10-09T11:53:37.098Z,0.07
2022-10-09T11:55:35.148Z,0.10
2022-10-09T11:57:33.698Z,0.17
2022-10-09T11:59:33.560Z,0.20
2022-10-09T12:01:33.850Z,0.30
2022-10-09T12:03:33.983Z,0.10
2022-10-09T12:05:36.880Z,0.00
2022-10-09T12:07:35.904Z,0.05
2022-10-09T12:09:36.989Z,0.10
2022-10-09T12:11:35.930Z,0.00
2022-10-09T12:13:42.881Z,0.10
2022-10-09T12:15:46.325Z,0.20
2022-10-09T12:17:49.922Z,0.10
2022-10-09T12:19:47.989Z,0.15
2022-10-09T12:21:51.200Z,0.10
2022-10-09T12:23:50.594Z,36.05
2022-10-09T12:25:50.152Z,74.57
2022-10-09T12:27:48.900Z,13.83
2022-10-09T12:29:48.503Z,40.77
2022-10-09T12:31:46.719Z,9.50
2022-10-09T12:33:46.569Z,5.93
2022-10-09T12:35:46.289Z,9.67
2022-10-09T12:37:44.155Z,1.60
2022-10-09T12:39:42.536Z,1.23
2022-10-09T12:41:44.798Z,20.07
2022-10-09T12:43:45.596Z,9.63
2022-10-09T12:45:44.431Z,9.70
2022-10-09T12:47:42.489Z,1.53
2022-10-09T12:49:40.479Z,4.80
2022-10-09T12:51:38.451Z,3.50
2022-10-09T12:53:47.016Z,1.03
2022-10-09T12:55:46.189Z,0.30
2022-10-09T12:57:45.737Z,0.60
2022-10-09T12:59:44.585Z,0.50
2022-10-09T13:01:43.673Z,0.10
2022-10-09T13:03:43.120Z,0.23
2022-10-09T13:05:42.244Z,0.20
2022-10-09T13:07:40.399Z,0.20
2022-10-09T13:09:39.403Z,0.00
2022-10-09T13:11:40.541Z,0.20
2022-10-09T13:13:40.874Z,8.10
2022-10-09T13:15:38.818Z,1.20
2022-10-09T13:17:38.238Z,0.10
2022-10-09T13:19:37.190Z,0.40
2022-10-09T13:21:35.622Z,2.40
2022-10-09T13:23:34.806Z,5.80
2022-10-09T13:25:33.502Z,7.17
2022-10-09T13:27:32.899Z,0.77
2022-10-09T13:29:32.602Z,2.93
2022-10-09T13:31:31.951Z,3.03
2022-10-09T13:33:29.929Z,3.40
2022-10-09T13:35:27.965Z,1.90
2022-10-09T13:37:27.135Z,0.20
2022-10-09T13:39:25.145Z,0.30
2022-10-09T13:41:24.622Z,0.27
2022-10-09T13:43:24.098Z,0.47
2022-10-09T13:45:23.639Z,0.40
2022-10-09T13:47:24.383Z,0.40
2022-10-09T13:49:22.823Z,0.20
2022-10-09T13:51:20.642Z,0.13
2022-10-09T13:53:18.864Z,0.30
2022-10-09T13:55:17.174Z,0.20
2022-10-09T13:57:15.096Z,0.20
2022-10-09T13:59:13.549Z,0.30
2022-10-09T14:01:13.182Z,0.03
2022-10-09T14:03:11.604Z,0.20
2022-10-09T14:05:09.816Z,0.20
2022-10-09T14:07:08.086Z,0.40
2022-10-09T14:09:06.352Z,0.40
2022-10-09T14:11:04.244Z,38.53
2022-10-09T14:13:02.185Z,7.30
2022-10-09T14:15:00.730Z,30.30
2022-10-09T14:17:00.251Z,65.77
2022-10-09T14:18:58.467Z,23.73
2022-10-09T14:20:56.404Z,1.60
2022-10-09T14:22:54.383Z,0.60
2022-10-09T14:24:52.271Z,0.43
2022-10-09T14:26:51.760Z,0.77
2022-10-09T14:28:50.000Z,0.77
2022-10-09T14:30:48.115Z,0.40
2022-10-09T14:32:47.696Z,0.40
2022-10-09T14:34:45.897Z,0.53
2022-10-09T14:36:43.878Z,0.20
2022-10-09T14:38:42.126Z,0.30
2022-10-09T14:40:42.598Z,0.67
2022-10-09T14:42:40.530Z,0.20
2022-10-09T14:44:38.327Z,0.13
2022-10-09T14:46:38.107Z,0.60
2022-10-09T14:48:37.473Z,0.43
2022-10-09T14:50:36.203Z,0.30
2022-10-09T14:52:34.124Z,0.40
2022-10-09T14:54:31.886Z,0.80
2022-10-09T14:56:30.075Z,0.40
2022-10-09T14:58:28.941Z,0.47
2022-10-09T15:00:27.384Z,0.50
2022-10-09T15:02:25.559Z,0.20
2022-10-09T15:04:25.441Z,0.97
2022-10-09T15:06:25.330Z,0.87
2022-10-09T15:08:23.689Z,0.67
2022-10-09T15:10:22.173Z,1.17
2022-10-09T15:12:20.422Z,0.67
2022-10-09T15:14:18.998Z,0.63
2022-10-09T15:16:17.848Z,0.70
2022-10-09T15:18:15.733Z,0.50
2022-10-09T15:20:14.902Z,10.17
2022-10-09T15:22:12.882Z,6.87
2022-10-09T15:24:10.822Z,14.77
2022-10-09T15:26:09.079Z,5.77
2022-10-09T15:28:07.473Z,8.67
2022-10-09T15:30:05.752Z,8.37
2022-10-09T15:32:04.012Z,9.37
2022-10-09T15:34:02.407Z,4.30
2022-10-09T15:36:01.740Z,1.63
2022-10-09T15:37:59.608Z,1.00
2022-10-09T15:39:57.703Z,0.97
2022-10-09T15:41:55.872Z,1.20
2022-10-09T15:43:55.154Z,1.27
2022-10-09T15:45:54.270Z,1.43
2022-10-09T15:47:53.304Z,1.23
2022-10-09T15:49:53.444Z,0.90
2022-10-09T15:51:52.735Z,1.50
2022-10-09T15:53:51.556Z,1.33
2022-10-09T15:55:50.772Z,1.20
2022-10-09T15:57:48.642Z,1.07
2022-10-09T15:59:46.984Z,1.07
2022-10-09T16:01:44.908Z,1.13
2022-10-09T16:03:43.138Z,1.97
2022-10-09T16:05:43.121Z,1.53
2022-10-09T16:07:42.393Z,1.53
2022-10-09T16:09:40.266Z,1.50
2022-10-09T16:11:38.487Z,1.40
2022-10-09T16:13:38.028Z,1.23
2022-10-09T16:15:36.057Z,1.17
2022-10-09T16:17:34.104Z,35.20
2022-10-09T16:19:32.117Z,60.80
2022-10-09T16:21:30.350Z,22.70
2022-10-09T16:23:29.622Z,7.67
2022-10-09T16:25:27.483Z,9.70
2022-10-09T16:27:25.533Z,2.33
2022-10-09T16:29:23.512Z,3.13
2022-10-09T16:31:22.250Z,1.67
2022-10-09T16:33:20.038Z,3.50
2022-10-09T16:35:17.977Z,2.70
2022-10-09T16:37:15.973Z,1.60
2022-10-09T16:39:15.433Z,1.60
2022-10-09T16:41:14.843Z,2.13
2022-10-09T16:43:13.009Z,2.03
2022-10-09T16:45:11.292Z,1.80
2022-10-09T16:47:09.925Z,1.97
2022-10-09T16:49:07.887Z,2.33
2022-10-09T16:51:08.800Z,2.03
2022-10-09T16:53:06.698Z,1.90
2022-10-09T16:55:06.902Z,1.53
2022-10-09T16:57:05.131Z,3.07
2022-10-09T16:59:03.946Z,2.07
2022-10-09T17:01:03.940Z,1.70
2022-10-09T17:03:06.101Z,1.92
2022-10-09T17:05:04.695Z,2.20
2022-10-09T17:07:02.669Z,2.53
2022-10-09T17:09:00.560Z,2.43
2022-10-09T17:10:59.824Z,1.93
2022-10-09T17:12:57.805Z,1.63
2022-10-09T17:14:55.992Z,2.63
2022-10-09T17:16:54.016Z,2.10
2022-10-09T17:18:53.071Z,2.13
2022-10-09T17:20:51.008Z,1.93
2022-10-09T17:22:49.233Z,1.13
2022-10-09T17:24:47.321Z,2.40
2022-10-09T17:26:46.675Z,2.83
2022-10-09T17:28:44.942Z,2.60
2022-10-09T17:30:42.950Z,2.43
2022-10-09T17:32:40.932Z,2.03
2022-10-09T17:34:43.044Z,1.77
2022-10-09T17:36:42.150Z,2.33
2022-10-09T17:38:40.411Z,2.33
2022-10-09T17:40:39.019Z,1.93
2022-10-09T17:42:38.408Z,2.97
2022-10-09T17:44:36.269Z,2.87
2022-10-09T17:46:34.137Z,6.13
2022-10-09T17:48:33.212Z,3.50
2022-10-09T17:50:31.199Z,7.70
2022-10-09T17:52:29.282Z,3.77
2022-10-09T17:54:27.189Z,3.30
2022-10-09T17:56:25.461Z,2.03
2022-10-09T17:58:25.417Z,3.20
2022-10-09T18:00:23.826Z,3.33
2022-10-09T18:02:21.843Z,3.23
2022-10-09T18:04:19.744Z,3.08
2022-10-09T18:06:19.177Z,2.50
2022-10-09T18:08:18.556Z,3.08
2022-10-09T18:10:17.028Z,3.15
2022-10-09T18:12:15.381Z,4.07
2022-10-09T18:14:16.882Z,3.95
2022-10-09T18:16:16.067Z,3.58
2022-10-09T18:18:14.343Z,3.80
2022-10-09T18:20:12.391Z,3.47
2022-10-09T18:22:10.209Z,4.07
2022-10-09T18:24:08.384Z,4.25
2022-10-09T18:26:08.194Z,4.07
2022-10-09T18:28:06.234Z,5.13
2022-10-09T18:30:06.042Z,4.22
2022-10-09T18:32:03.970Z,5.10
2022-10-09T18:34:02.032Z,5.80
2022-10-09T18:36:02.933Z,4.00
2022-10-09T18:38:00.832Z,3.85
2022-10-09T18:39:58.802Z,4.55
2022-10-09T18:41:58.266Z,3.60
2022-10-09T18:43:56.238Z,3.90
2022-10-09T18:45:55.848Z,4.82
2022-10-09T18:47:53.741Z,4.45
2022-10-09T18:49:53.088Z,4.72
2022-10-09T18:51:51.220Z,4.90
2022-10-09T18:53:50.836Z,4.10
2022-10-09T18:55:48.897Z,5.20
2022-10-09T18:57:47.290Z,5.22
2022-10-09T18:59:45.684Z,5.45
2022-10-09T19:01:45.008Z,15.32
2022-10-09T19:03:46.035Z,7.05
2022-10-09T19:07:44.873Z,5.78
2022-10-09T19:09:42.944Z,5.50
2022-10-09T19:11:41.000Z,3.28
2022-10-09T19:13:38.994Z,3.97
2022-10-09T19:15:36.867Z,3.78
2022-10-09T19:17:36.111Z,4.10
2022-10-09T19:19:34.382Z,4.65
2022-10-09T19:21:32.397Z,3.63
2022-10-09T19:23:30.314Z,4.78
2022-10-09T19:25:28.242Z,4.68
2022-10-09T19:27:26.851Z,3.40
2022-10-09T19:29:25.177Z,4.00
2022-10-09T19:31:23.141Z,3.58
2022-10-09T19:33:22.478Z,3.83
2022-10-09T19:35:20.406Z,4.50
2022-10-09T19:37:18.477Z,3.65
2022-10-09T19:39:16.856Z,5.18
2022-10-09T19:41:16.019Z,4.63
2022-10-09T19:43:14.555Z,5.00
2022-10-09T19:45:12.585Z,3.10
2022-10-09T19:47:10.424Z,2.55
2022-10-09T19:49:09.989Z,3.72
2022-10-09T19:51:08.277Z,3.85
2022-10-09T19:53:06.585Z,4.60
2022-10-09T19:55:05.332Z,3.80
2022-10-09T19:57:03.236Z,3.47
2022-10-09T19:59:02.955Z,4.30
2022-10-09T20:01:00.965Z,6.20
2022-10-09T20:03:00.376Z,13.10
2022-10-09T20:05:03.326Z,6.80
2022-10-09T20:07:01.313Z,4.47
2022-10-09T20:09:01.261Z,4.28
2022-10-09T20:10:59.909Z,4.32
2022-10-09T20:12:58.049Z,4.60
2022-10-09T20:14:56.473Z,6.18
2022-10-09T20:16:54.944Z,6.50
2022-10-09T20:18:52.958Z,7.93
2022-10-09T20:20:52.288Z,7.75
2022-10-09T20:22:50.575Z,6.72
2022-10-09T20:24:48.730Z,4.40
2022-10-09T20:26:46.755Z,7.53
2022-10-09T20:28:45.105Z,6.50
2022-10-09T20:30:43.667Z,6.22
2022-10-09T20:32:41.660Z,5.45
2022-10-09T20:34:40.028Z,5.75
2022-10-09T20:36:39.404Z,5.53
2022-10-09T20:38:37.251Z,5.78
2022-10-09T20:40:35.201Z,18.02
2022-10-09T20:42:35.498Z,7.32
2022-10-09T20:44:33.837Z,6.68
2022-10-09T20:46:32.984Z,6.90
2022-10-09T20:48:30.864Z,5.57
2022-10-09T20:50:28.930Z,5.93
2022-10-09T20:52:28.254Z,6.53
2022-10-09T20:54:26.504Z,6.80
2022-10-09T20:56:24.887Z,7.88
2022-10-09T20:58:22.809Z,6.93
2022-10-09T21:00:20.855Z,5.57
2022-10-09T21:02:18.834Z,6.03
2022-10-09T21:04:16.902Z,7.32
2022-10-09T21:06:16.155Z,4.72
2022-10-09T21:08:15.851Z,9.02
2022-10-09T21:10:14.265Z,9.48
2022-10-09T21:12:12.295Z,10.68
2022-10-09T21:14:10.998Z,9.00
2022-10-09T21:16:09.729Z,30.10
2022-10-09T21:18:07.733Z,15.27
2022-10-09T21:20:05.982Z,17.73
2022-10-09T21:22:04.001Z,21.30
2022-10-09T21:24:03.525Z,33.83
2022-10-09T21:26:02.006Z,17.17
2022-10-09T21:27:59.857Z,24.90
2022-10-09T21:29:57.811Z,36.00
2022-10-09T21:31:55.843Z,34.63
2022-10-09T21:33:53.750Z,20.80
2022-10-09T21:35:55.490Z,11.70
2022-10-09T21:37:53.278Z,12.27
2022-10-09T21:39:53.318Z,11.85
2022-10-09T21:41:52.531Z,12.45
2022-10-09T21:43:50.462Z,10.98
2022-10-09T21:45:50.571Z,9.82
2022-10-09T21:47:48.565Z,8.30
2022-10-09T21:49:46.481Z,6.35
2022-10-09T21:51:44.375Z,6.40
2022-10-09T21:53:42.269Z,5.53
2022-10-09T21:55:42.015Z,3.85
2022-10-09T21:57:40.015Z,4.22
2022-10-09T21:59:37.976Z,4.88
2022-10-09T22:01:37.325Z,4.30
2022-10-09T22:03:36.326Z,4.07
2022-10-09T22:05:34.183Z,4.45
2022-10-09T22:07:33.179Z,4.70
2022-10-09T22:09:31.049Z,4.45
2022-10-09T22:11:30.529Z,4.65
2022-10-09T22:13:28.617Z,5.05
2022-10-09T22:15:26.520Z,4.63
2022-10-09T22:17:24.490Z,5.57
2022-10-09T22:19:22.396Z,5.63
2022-10-09T22:21:20.427Z,5.43
2022-10-09T22:23:19.150Z,4.38
2022-10-09T22:25:17.156Z,4.90
2022-10-09T22:27:16.408Z,4.63
2022-10-09T22:29:14.394Z,5.35
2022-10-09T22:31:13.545Z,4.57
2022-10-09T22:33:11.411Z,5.35
2022-10-09T22:35:09.804Z,5.07
2022-10-09T22:37:07.730Z,4.80
2022-10-09T22:39:06.401Z,4.40
2022-10-09T22:41:05.017Z,5.00
2022-10-09T22:43:04.848Z,4.55
2022-10-09T22:45:02.797Z,4.25
2022-10-09T22:47:00.706Z,4.63
2022-10-09T22:48:59.027Z,5.28
2022-10-09T22:50:56.030Z,5.25
2022-10-09T22:52:54.006Z,4.90
2022-10-09T22:54:52.302Z,5.65
2022-10-09T22:56:50.292Z,4.75
2022-10-09T22:58:50.099Z,3.72
2022-10-09T23:00:48.184Z,4.63
2022-10-09T23:02:46.041Z,4.38
2022-10-09T23:04:43.871Z,4.60
2022-10-09T23:06:42.359Z,4.00
2022-10-09T23:08:40.558Z,4.70
2022-10-09T23:10:38.730Z,5.47
2022-10-09T23:12:36.598Z,4.38
2022-10-09T23:14:35.870Z,5.25
2022-10-09T23:16:34.109Z,5.38
2022-10-09T23:18:32.235Z,4.40
2022-10-09T23:20:30.142Z,4.28
2022-10-09T23:22:28.180Z,4.18
2022-10-09T23:24:26.045Z,4.35
2022-10-09T23:26:25.426Z,5.45
2022-10-09T23:28:23.434Z,5.05
2022-10-09T23:30:22.793Z,3.80
2022-10-09T23:32:20.724Z,4.32
2022-10-09T23:34:18.683Z,3.25
2022-10-09T23:36:17.255Z,6.50
2022-10-09T23:38:15.114Z,4.70
2022-10-09T23:40:13.053Z,5.15
2022-10-09T23:42:10.997Z,3.88
2022-10-09T23:44:08.806Z,4.15
2022-10-09T23:46:09.459Z,5.00
2022-10-09T23:48:07.446Z,5.05
2022-10-09T23:50:05.677Z,5.25
2022-10-09T23:52:03.656Z,5.63
2022-10-09T23:54:01.567Z,4.55
2022-10-09T23:55:59.493Z,4.60
2022-10-09T23:57:57.330Z,4.90
2022-10-09T23:59:55.171Z,5.53
